sensor_id;sensor_type;location;lat;lon;timestamp;P1;durP1;ratioP1;P2;durP2;ratioP2
4274;SDS011;2151;50.988;11.068;2023-03-18T00:01:50;124.07;;;6.67;;
4274;SDS011;2151;50.988;11.068;2023-03-18T00:04:17;120.37;;;6.60;;
4274;SDS011;2151;50.988;11.068;2023-03-18T00:06:43;119.43;;;6.37;;
4274;SDS011;2151;50.988;11.068;2023-03-18T00:09:10;119.67;;;6.03;;
4274;SDS011;2151;50.988;11.068;2023-03-18T00:11:39;120.80;;;6.50;;
4274;SDS011;2151;50.988;11.068;2023-03-18T00:14:07;120.27;;;6.33;;
4274;SDS011;2151;50.988;11.068;2023-03-18T00:16:34;119.77;;;6.10;;
4274;SDS011;2151;50.988;11.068;2023-03-18T00:19:02;119.77;;;6.50;;
4274;SDS011;2151;50.988;11.068;2023-03-18T00:21:30;120.27;;;7.00;;
4274;SDS011;2151;50.988;11.068;2023-03-18T00:23:57;121.47;;;6.20;;
4274;SDS011;2151;50.988;11.068;2023-03-18T00:26:24;120.60;;;6.40;;
4274;SDS011;2151;50.988;11.068;2023-03-18T00:28:53;121.63;;;6.10;;
4274;SDS011;2151;50.988;11.068;2023-03-18T00:31:21;120.67;;;6.20;;
4274;SDS011;2151;50.988;11.068;2023-03-18T00:33:47;123.20;;;6.20;;
4274;SDS011;2151;50.988;11.068;2023-03-18T00:36:15;120.47;;;6.13;;
4274;SDS011;2151;50.988;11.068;2023-03-18T00:38:45;120.10;;;6.23;;
4274;SDS011;2151;50.988;11.068;2023-03-18T00:41:16;121.37;;;6.33;;
4274;SDS011;2151;50.988;11.068;2023-03-18T00:43:46;122.77;;;6.50;;
4274;SDS011;2151;50.988;11.068;2023-03-18T00:46:22;121.70;;;6.20;;
4274;SDS011;2151;50.988;11.068;2023-03-18T00:49:07;120.70;;;5.97;;
4274;SDS011;2151;50.988;11.068;2023-03-18T00:51:35;120.60;;;6.17;;
4274;SDS011;2151;50.988;11.068;2023-03-18T00:54:03;122.10;;;7.00;;
4274;SDS011;2151;50.988;11.068;2023-03-18T00:56:33;120.40;;;6.37;;
4274;SDS011;2151;50.988;11.068;2023-03-18T00:59:01;119.97;;;6.10;;
4274;SDS011;2151;50.988;11.068;2023-03-18T01:01:28;126.07;;;6.23;;
4274;SDS011;2151;50.988;11.068;2023-03-18T01:03:54;121.20;;;6.63;;
4274;SDS011;2151;50.988;11.068;2023-03-18T01:06:22;120.87;;;6.50;;
4274;SDS011;2151;50.988;11.068;2023-03-18T01:08:54;120.60;;;6.53;;
4274;SDS011;2151;50.988;11.068;2023-03-18T01:11:21;120.77;;;6.50;;
4274;SDS011;2151;50.988;11.068;2023-03-18T01:13:48;120.87;;;6.40;;
4274;SDS011;2151;50.988;11.068;2023-03-18T01:16:15;120.77;;;6.53;;
4274;SDS011;2151;50.988;11.068;2023-03-18T01:18:41;121.63;;;7.50;;
4274;SDS011;2151;50.988;11.068;2023-03-18T01:21:09;120.67;;;6.30;;
4274;SDS011;2151;50.988;11.068;2023-03-18T01:23:36;121.33;;;6.60;;
4274;SDS011;2151;50.988;11.068;2023-03-18T01:26:03;123.40;;;6.23;;
4274;SDS011;2151;50.988;11.068;2023-03-18T01:28:30;120.80;;;5.80;;
4274;SDS011;2151;50.988;11.068;2023-03-18T01:30:57;124.10;;;6.20;;
4274;SDS011;2151;50.988;11.068;2023-03-18T01:33:24;123.37;;;6.80;;
4274;SDS011;2151;50.988;11.068;2023-03-18T01:35:56;120.70;;;6.20;;
4274;SDS011;2151;50.988;11.068;2023-03-18T01:38:25;120.27;;;6.30;;
4274;SDS011;2151;50.988;11.068;2023-03-18T01:40:55;151.33;;;19.13;;
4274;SDS011;2151;50.988;11.068;2023-03-18T01:43:24;139.67;;;14.30;;
4274;SDS011;2151;50.988;11.068;2023-03-18T01:46:21;125.90;;;9.40;;
4274;SDS011;2151;50.988;11.068;2023-03-18T01:49:15;122.00;;;6.50;;
4274;SDS011;2151;50.988;11.068;2023-03-18T01:51:45;125.77;;;6.57;;
4274;SDS011;2151;50.988;11.068;2023-03-18T01:54:16;120.17;;;6.27;;
4274;SDS011;2151;50.988;11.068;2023-03-18T01:56:44;129.77;;;6.83;;
4274;SDS011;2151;50.988;11.068;2023-03-18T01:59:12;122.27;;;6.60;;
4274;SDS011;2151;50.988;11.068;2023-03-18T02:01:42;121.70;;;6.80;;
4274;SDS011;2151;50.988;11.068;2023-03-18T02:04:13;120.30;;;6.10;;
4274;SDS011;2151;50.988;11.068;2023-03-18T02:06:38;123.00;;;7.10;;
4274;SDS011;2151;50.988;11.068;2023-03-18T02:09:05;122.37;;;6.90;;
4274;SDS011;2151;50.988;11.068;2023-03-18T02:11:36;120.73;;;6.27;;
4274;SDS011;2151;50.988;11.068;2023-03-18T02:14:05;120.57;;;6.27;;
4274;SDS011;2151;50.988;11.068;2023-03-18T02:16:33;121.67;;;6.90;;
4274;SDS011;2151;50.988;11.068;2023-03-18T02:19:11;121.47;;;6.80;;
4274;SDS011;2151;50.988;11.068;2023-03-18T02:24:50;124.00;;;6.70;;
4274;SDS011;2151;50.988;11.068;2023-03-18T02:27:25;121.73;;;6.13;;
4274;SDS011;2151;50.988;11.068;2023-03-18T02:29:57;121.17;;;6.37;;
4274;SDS011;2151;50.988;11.068;2023-03-18T02:32:27;122.67;;;6.03;;
4274;SDS011;2151;50.988;11.068;2023-03-18T02:34:54;121.07;;;6.57;;
4274;SDS011;2151;50.988;11.068;2023-03-18T02:37:21;121.27;;;6.77;;
4274;SDS011;2151;50.988;11.068;2023-03-18T02:39:48;121.17;;;6.83;;
4274;SDS011;2151;50.988;11.068;2023-03-18T02:42:14;126.40;;;6.87;;
4274;SDS011;2151;50.988;11.068;2023-03-18T02:44:42;120.97;;;7.20;;
4274;SDS011;2151;50.988;11.068;2023-03-18T02:47:11;122.17;;;6.70;;
4274;SDS011;2151;50.988;11.068;2023-03-18T02:49:45;123.00;;;6.63;;
4274;SDS011;2151;50.988;11.068;2023-03-18T02:52:12;123.47;;;6.97;;
4274;SDS011;2151;50.988;11.068;2023-03-18T02:54:38;122.57;;;6.40;;
4274;SDS011;2151;50.988;11.068;2023-03-18T02:57:05;124.00;;;6.87;;
4274;SDS011;2151;50.988;11.068;2023-03-18T02:59:31;121.20;;;6.30;;
4274;SDS011;2151;50.988;11.068;2023-03-18T03:01:58;126.67;;;6.60;;
4274;SDS011;2151;50.988;11.068;2023-03-18T03:04:25;122.30;;;6.07;;
4274;SDS011;2151;50.988;11.068;2023-03-18T03:06:52;122.00;;;6.57;;
4274;SDS011;2151;50.988;11.068;2023-03-18T03:09:20;123.00;;;7.13;;
4274;SDS011;2151;50.988;11.068;2023-03-18T03:11:47;120.30;;;6.50;;
4274;SDS011;2151;50.988;11.068;2023-03-18T03:14:14;125.67;;;6.20;;
4274;SDS011;2151;50.988;11.068;2023-03-18T03:16:41;121.87;;;6.20;;
4274;SDS011;2151;50.988;11.068;2023-03-18T03:19:08;122.37;;;7.03;;
4274;SDS011;2151;50.988;11.068;2023-03-18T03:21:35;123.60;;;6.47;;
4274;SDS011;2151;50.988;11.068;2023-03-18T03:24:02;123.20;;;6.93;;
4274;SDS011;2151;50.988;11.068;2023-03-18T03:26:29;121.97;;;6.23;;
4274;SDS011;2151;50.988;11.068;2023-03-18T03:28:56;120.87;;;6.40;;
4274;SDS011;2151;50.988;11.068;2023-03-18T03:31:23;121.57;;;6.50;;
4274;SDS011;2151;50.988;11.068;2023-03-18T03:33:50;121.50;;;6.37;;
4274;SDS011;2151;50.988;11.068;2023-03-18T03:36:16;120.07;;;6.33;;
4274;SDS011;2151;50.988;11.068;2023-03-18T03:38:43;120.90;;;6.33;;
4274;SDS011;2151;50.988;11.068;2023-03-18T03:41:11;122.97;;;6.20;;
4274;SDS011;2151;50.988;11.068;2023-03-18T03:43:38;122.10;;;6.17;;
4274;SDS011;2151;50.988;11.068;2023-03-18T03:46:05;120.77;;;6.63;;
4274;SDS011;2151;50.988;11.068;2023-03-18T03:48:32;121.27;;;6.10;;
4274;SDS011;2151;50.988;11.068;2023-03-18T03:51:00;121.83;;;6.73;;
4274;SDS011;2151;50.988;11.068;2023-03-18T03:53:27;121.83;;;6.57;;
4274;SDS011;2151;50.988;11.068;2023-03-18T03:55:54;121.97;;;6.37;;
4274;SDS011;2151;50.988;11.068;2023-03-18T03:58:24;124.30;;;6.57;;
4274;SDS011;2151;50.988;11.068;2023-03-18T04:00:51;125.60;;;6.27;;
4274;SDS011;2151;50.988;11.068;2023-03-18T04:03:18;121.47;;;6.73;;
4274;SDS011;2151;50.988;11.068;2023-03-18T04:05:44;120.37;;;5.90;;
4274;SDS011;2151;50.988;11.068;2023-03-18T04:08:11;121.87;;;6.50;;
4274;SDS011;2151;50.988;11.068;2023-03-18T04:10:37;124.07;;;6.70;;
4274;SDS011;2151;50.988;11.068;2023-03-18T04:13:04;121.40;;;6.80;;
4274;SDS011;2151;50.988;11.068;2023-03-18T04:15:31;121.33;;;6.37;;
4274;SDS011;2151;50.988;11.068;2023-03-18T04:17:57;121.30;;;6.43;;
4274;SDS011;2151;50.988;11.068;2023-03-18T04:20:27;123.20;;;6.60;;
4274;SDS011;2151;50.988;11.068;2023-03-18T04:22:53;122.80;;;6.73;;
4274;SDS011;2151;50.988;11.068;2023-03-18T04:25:20;121.23;;;6.23;;
4274;SDS011;2151;50.988;11.068;2023-03-18T04:27:47;123.27;;;7.03;;
4274;SDS011;2151;50.988;11.068;2023-03-18T04:30:13;121.57;;;6.57;;
4274;SDS011;2151;50.988;11.068;2023-03-18T04:32:40;121.07;;;6.53;;
4274;SDS011;2151;50.988;11.068;2023-03-18T04:35:06;121.57;;;6.67;;
4274;SDS011;2151;50.988;11.068;2023-03-18T04:37:34;122.57;;;6.80;;
4274;SDS011;2151;50.988;11.068;2023-03-18T04:40:03;123.47;;;6.47;;
4274;SDS011;2151;50.988;11.068;2023-03-18T04:42:30;123.90;;;6.67;;
4274;SDS011;2151;50.988;11.068;2023-03-18T04:44:57;124.17;;;6.77;;
4274;SDS011;2151;50.988;11.068;2023-03-18T04:47:23;122.90;;;6.60;;
4274;SDS011;2151;50.988;11.068;2023-03-18T04:49:51;121.77;;;6.47;;
4274;SDS011;2151;50.988;11.068;2023-03-18T04:52:17;121.30;;;6.30;;
4274;SDS011;2151;50.988;11.068;2023-03-18T04:54:43;123.70;;;6.30;;
4274;SDS011;2151;50.988;11.068;2023-03-18T04:57:10;121.70;;;6.37;;
4274;SDS011;2151;50.988;11.068;2023-03-18T04:59:37;121.83;;;6.60;;
4274;SDS011;2151;50.988;11.068;2023-03-18T05:02:04;121.53;;;6.40;;
4274;SDS011;2151;50.988;11.068;2023-03-18T05:04:30;124.80;;;6.97;;
4274;SDS011;2151;50.988;11.068;2023-03-18T05:06:57;121.77;;;6.47;;
4274;SDS011;2151;50.988;11.068;2023-03-18T05:09:23;119.93;;;6.10;;
4274;SDS011;2151;50.988;11.068;2023-03-18T05:11:50;122.50;;;6.40;;
4274;SDS011;2151;50.988;11.068;2023-03-18T05:14:18;124.73;;;6.37;;
4274;SDS011;2151;50.988;11.068;2023-03-18T05:16:44;123.27;;;7.40;;
4274;SDS011;2151;50.988;11.068;2023-03-18T05:19:11;122.37;;;6.13;;
4274;SDS011;2151;50.988;11.068;2023-03-18T05:21:37;121.43;;;6.40;;
4274;SDS011;2151;50.988;11.068;2023-03-18T05:24:04;123.23;;;6.67;;
4274;SDS011;2151;50.988;11.068;2023-03-18T05:26:31;121.80;;;6.40;;
4274;SDS011;2151;50.988;11.068;2023-03-18T05:28:57;122.37;;;6.60;;
4274;SDS011;2151;50.988;11.068;2023-03-18T05:31:24;122.23;;;6.53;;
4274;SDS011;2151;50.988;11.068;2023-03-18T05:33:51;127.50;;;7.33;;
4274;SDS011;2151;50.988;11.068;2023-03-18T05:36:18;122.77;;;6.27;;
4274;SDS011;2151;50.988;11.068;2023-03-18T05:38:44;122.80;;;6.70;;
4274;SDS011;2151;50.988;11.068;2023-03-18T05:41:11;123.30;;;6.70;;
4274;SDS011;2151;50.988;11.068;2023-03-18T05:43:37;122.70;;;6.40;;
4274;SDS011;2151;50.988;11.068;2023-03-18T05:46:04;122.60;;;7.00;;
4274;SDS011;2151;50.988;11.068;2023-03-18T05:48:31;122.60;;;6.30;;
4274;SDS011;2151;50.988;11.068;2023-03-18T05:50:58;124.10;;;6.57;;
4274;SDS011;2151;50.988;11.068;2023-03-18T05:53:25;124.33;;;7.10;;
4274;SDS011;2151;50.988;11.068;2023-03-18T05:55:51;121.87;;;6.67;;
4274;SDS011;2151;50.988;11.068;2023-03-18T05:58:18;122.30;;;6.30;;
4274;SDS011;2151;50.988;11.068;2023-03-18T06:00:46;120.20;;;6.30;;
4274;SDS011;2151;50.988;11.068;2023-03-18T06:03:12;121.50;;;6.40;;
4274;SDS011;2151;50.988;11.068;2023-03-18T06:05:39;120.77;;;6.67;;
4274;SDS011;2151;50.988;11.068;2023-03-18T06:08:05;122.10;;;6.33;;
4274;SDS011;2151;50.988;11.068;2023-03-18T06:10:33;123.93;;;7.00;;
4274;SDS011;2151;50.988;11.068;2023-03-18T06:12:59;121.67;;;6.67;;
4274;SDS011;2151;50.988;11.068;2023-03-18T06:15:26;120.17;;;6.27;;
4274;SDS011;2151;50.988;11.068;2023-03-18T06:17:52;120.67;;;5.97;;
4274;SDS011;2151;50.988;11.068;2023-03-18T06:20:19;127.20;;;6.80;;
4274;SDS011;2151;50.988;11.068;2023-03-18T06:22:45;122.30;;;6.80;;
4274;SDS011;2151;50.988;11.068;2023-03-18T06:25:16;123.47;;;7.00;;
4274;SDS011;2151;50.988;11.068;2023-03-18T06:27:44;125.47;;;6.47;;
4274;SDS011;2151;50.988;11.068;2023-03-18T06:30:12;123.67;;;6.07;;
4274;SDS011;2151;50.988;11.068;2023-03-18T06:32:39;122.13;;;6.27;;
4274;SDS011;2151;50.988;11.068;2023-03-18T06:35:06;121.33;;;6.43;;
4274;SDS011;2151;50.988;11.068;2023-03-18T06:37:33;120.40;;;5.83;;
4274;SDS011;2151;50.988;11.068;2023-03-18T06:40:00;120.77;;;5.97;;
4274;SDS011;2151;50.988;11.068;2023-03-18T06:42:27;120.90;;;6.90;;
4274;SDS011;2151;50.988;11.068;2023-03-18T06:44:53;121.20;;;6.30;;
4274;SDS011;2151;50.988;11.068;2023-03-18T06:47:20;120.80;;;6.77;;
4274;SDS011;2151;50.988;11.068;2023-03-18T06:49:48;122.33;;;6.67;;
4274;SDS011;2151;50.988;11.068;2023-03-18T06:52:16;120.17;;;6.00;;
4274;SDS011;2151;50.988;11.068;2023-03-18T06:54:44;120.27;;;6.60;;
4274;SDS011;2151;50.988;11.068;2023-03-18T06:57:11;121.37;;;6.30;;
4274;SDS011;2151;50.988;11.068;2023-03-18T06:59:38;123.77;;;7.43;;
4274;SDS011;2151;50.988;11.068;2023-03-18T07:02:06;120.37;;;6.33;;
4274;SDS011;2151;50.988;11.068;2023-03-18T07:04:33;124.33;;;6.87;;
4274;SDS011;2151;50.988;11.068;2023-03-18T07:07:00;122.50;;;6.17;;
4274;SDS011;2151;50.988;11.068;2023-03-18T07:09:27;121.97;;;6.87;;
4274;SDS011;2151;50.988;11.068;2023-03-18T07:11:53;120.93;;;6.80;;
4274;SDS011;2151;50.988;11.068;2023-03-18T07:14:20;122.97;;;7.20;;
4274;SDS011;2151;50.988;11.068;2023-03-18T07:16:46;123.70;;;7.23;;
4274;SDS011;2151;50.988;11.068;2023-03-18T07:19:13;121.27;;;6.83;;
4274;SDS011;2151;50.988;11.068;2023-03-18T07:21:40;127.63;;;6.90;;
4274;SDS011;2151;50.988;11.068;2023-03-18T07:24:08;120.87;;;7.40;;
4274;SDS011;2151;50.988;11.068;2023-03-18T07:26:35;120.57;;;6.90;;
4274;SDS011;2151;50.988;11.068;2023-03-18T07:29:02;121.87;;;6.80;;
4274;SDS011;2151;50.988;11.068;2023-03-18T07:31:29;123.97;;;6.43;;
4274;SDS011;2151;50.988;11.068;2023-03-18T07:33:56;121.10;;;6.27;;
4274;SDS011;2151;50.988;11.068;2023-03-18T07:36:23;121.10;;;6.50;;
4274;SDS011;2151;50.988;11.068;2023-03-18T07:38:50;119.93;;;5.70;;
4274;SDS011;2151;50.988;11.068;2023-03-18T07:41:16;119.80;;;6.57;;
4274;SDS011;2151;50.988;11.068;2023-03-18T07:43:43;121.17;;;6.50;;
4274;SDS011;2151;50.988;11.068;2023-03-18T07:46:10;121.53;;;6.30;;
4274;SDS011;2151;50.988;11.068;2023-03-18T07:48:36;118.87;;;6.57;;
4274;SDS011;2151;50.988;11.068;2023-03-18T07:51:03;119.10;;;6.00;;
4274;SDS011;2151;50.988;11.068;2023-03-18T07:53:30;121.40;;;6.20;;
4274;SDS011;2151;50.988;11.068;2023-03-18T07:55:56;119.10;;;6.30;;
4274;SDS011;2151;50.988;11.068;2023-03-18T07:58:23;121.40;;;6.20;;
4274;SDS011;2151;50.988;11.068;2023-03-18T08:00:51;121.93;;;7.60;;
4274;SDS011;2151;50.988;11.068;2023-03-18T08:03:18;120.10;;;6.20;;
4274;SDS011;2151;50.988;11.068;2023-03-18T08:05:44;118.80;;;6.70;;
4274;SDS011;2151;50.988;11.068;2023-03-18T08:08:11;124.47;;;7.03;;
4274;SDS011;2151;50.988;11.068;2023-03-18T08:10:37;124.27;;;7.30;;
4274;SDS011;2151;50.988;11.068;2023-03-18T08:13:03;119.70;;;7.40;;
4274;SDS011;2151;50.988;11.068;2023-03-18T08:15:31;120.93;;;8.00;;
4274;SDS011;2151;50.988;11.068;2023-03-18T08:17:57;120.07;;;8.27;;
4274;SDS011;2151;50.988;11.068;2023-03-18T08:20:24;122.57;;;8.47;;
4274;SDS011;2151;50.988;11.068;2023-03-18T08:22:52;120.30;;;8.50;;
4274;SDS011;2151;50.988;11.068;2023-03-18T08:25:18;120.17;;;8.47;;
4274;SDS011;2151;50.988;11.068;2023-03-18T08:27:47;120.87;;;8.60;;
4274;SDS011;2151;50.988;11.068;2023-03-18T08:30:13;123.40;;;9.27;;
4274;SDS011;2151;50.988;11.068;2023-03-18T08:32:41;121.50;;;9.87;;
4274;SDS011;2151;50.988;11.068;2023-03-18T08:35:08;120.23;;;10.30;;
4274;SDS011;2151;50.988;11.068;2023-03-18T08:37:36;121.07;;;11.57;;
4274;SDS011;2151;50.988;11.068;2023-03-18T08:40:03;122.00;;;12.10;;
4274;SDS011;2151;50.988;11.068;2023-03-18T08:42:30;122.20;;;11.23;;
4274;SDS011;2151;50.988;11.068;2023-03-18T08:44:57;120.40;;;10.03;;
4274;SDS011;2151;50.988;11.068;2023-03-18T08:47:23;124.87;;;8.70;;
4274;SDS011;2151;50.988;11.068;2023-03-18T08:49:50;121.60;;;8.47;;
4274;SDS011;2151;50.988;11.068;2023-03-18T08:52:17;120.80;;;9.23;;
4274;SDS011;2151;50.988;11.068;2023-03-18T08:54:44;120.90;;;8.60;;
4274;SDS011;2151;50.988;11.068;2023-03-18T08:57:10;120.07;;;8.60;;
4274;SDS011;2151;50.988;11.068;2023-03-18T08:59:37;120.07;;;8.07;;
4274;SDS011;2151;50.988;11.068;2023-03-18T09:02:03;123.60;;;10.80;;
4274;SDS011;2151;50.988;11.068;2023-03-18T09:04:30;120.57;;;11.30;;
4274;SDS011;2151;50.988;11.068;2023-03-18T09:06:58;123.77;;;14.83;;
4274;SDS011;2151;50.988;11.068;2023-03-18T09:09:26;121.17;;;10.60;;
4274;SDS011;2151;50.988;11.068;2023-03-18T09:12:08;123.67;;;10.20;;
4274;SDS011;2151;50.988;11.068;2023-03-18T09:14:37;123.10;;;12.90;;
4274;SDS011;2151;50.988;11.068;2023-03-18T09:17:05;123.63;;;14.73;;
4274;SDS011;2151;50.988;11.068;2023-03-18T09:19:32;124.97;;;17.90;;
4274;SDS011;2151;50.988;11.068;2023-03-18T09:21:58;126.83;;;19.30;;
4274;SDS011;2151;50.988;11.068;2023-03-18T09:24:25;127.57;;;17.37;;
4274;SDS011;2151;50.988;11.068;2023-03-18T09:26:51;130.17;;;14.10;;
4274;SDS011;2151;50.988;11.068;2023-03-18T09:29:18;128.30;;;13.50;;
4274;SDS011;2151;50.988;11.068;2023-03-18T09:31:45;127.27;;;12.90;;
4274;SDS011;2151;50.988;11.068;2023-03-18T09:34:12;128.00;;;12.93;;
4274;SDS011;2151;50.988;11.068;2023-03-18T09:36:39;127.60;;;13.23;;
4274;SDS011;2151;50.988;11.068;2023-03-18T09:39:06;128.27;;;12.73;;
4274;SDS011;2151;50.988;11.068;2023-03-18T09:41:52;130.13;;;12.97;;
4274;SDS011;2151;50.988;11.068;2023-03-18T09:44:33;129.80;;;13.10;;
4274;SDS011;2151;50.988;11.068;2023-03-18T09:49:41;128.10;;;12.87;;
4274;SDS011;2151;50.988;11.068;2023-03-18T09:57:34;126.60;;;10.00;;
4274;SDS011;2151;50.988;11.068;2023-03-18T10:00:08;126.77;;;9.63;;
4274;SDS011;2151;50.988;11.068;2023-03-18T10:02:44;125.57;;;9.17;;
4274;SDS011;2151;50.988;11.068;2023-03-18T10:05:24;126.47;;;8.30;;
4274;SDS011;2151;50.988;11.068;2023-03-18T10:07:55;124.13;;;7.93;;
4274;SDS011;2151;50.988;11.068;2023-03-18T10:10:25;124.53;;;8.10;;
4274;SDS011;2151;50.988;11.068;2023-03-18T10:15:55;121.07;;;6.70;;
4274;SDS011;2151;50.988;11.068;2023-03-18T10:26:30;119.13;;;6.27;;
4274;SDS011;2151;50.988;11.068;2023-03-18T10:29:12;119.17;;;5.90;;
4274;SDS011;2151;50.988;11.068;2023-03-18T10:34:58;116.60;;;5.70;;
4274;SDS011;2151;50.988;11.068;2023-03-18T10:40:11;115.30;;;5.43;;
4274;SDS011;2151;50.988;11.068;2023-03-18T10:42:39;117.17;;;5.70;;
4274;SDS011;2151;50.988;11.068;2023-03-18T10:45:23;116.17;;;5.43;;
4274;SDS011;2151;50.988;11.068;2023-03-18T10:48:03;118.13;;;5.90;;
4274;SDS011;2151;50.988;11.068;2023-03-18T10:50:36;118.47;;;5.67;;
4274;SDS011;2151;50.988;11.068;2023-03-18T10:56:04;117.80;;;5.70;;
4274;SDS011;2151;50.988;11.068;2023-03-18T10:58:33;118.67;;;5.87;;
4274;SDS011;2151;50.988;11.068;2023-03-18T11:00:59;120.90;;;6.70;;
4274;SDS011;2151;50.988;11.068;2023-03-18T11:03:27;117.80;;;5.40;;
4274;SDS011;2151;50.988;11.068;2023-03-18T11:05:57;119.87;;;5.53;;
4274;SDS011;2151;50.988;11.068;2023-03-18T11:08:30;116.07;;;5.50;;
4274;SDS011;2151;50.988;11.068;2023-03-18T11:11:19;121.90;;;6.20;;
4274;SDS011;2151;50.988;11.068;2023-03-18T11:13:49;117.60;;;5.63;;
4274;SDS011;2151;50.988;11.068;2023-03-18T11:18:49;118.60;;;5.10;;
4274;SDS011;2151;50.988;11.068;2023-03-18T11:21:16;116.90;;;5.83;;
4274;SDS011;2151;50.988;11.068;2023-03-18T11:23:54;117.43;;;5.77;;
4274;SDS011;2151;50.988;11.068;2023-03-18T11:29:44;115.40;;;5.27;;
4274;SDS011;2151;50.988;11.068;2023-03-18T11:32:26;114.57;;;5.23;;
4274;SDS011;2151;50.988;11.068;2023-03-18T11:34:54;112.87;;;4.83;;
4274;SDS011;2151;50.988;11.068;2023-03-18T11:37:26;112.70;;;4.70;;
4274;SDS011;2151;50.988;11.068;2023-03-18T11:40:04;113.17;;;5.23;;
4274;SDS011;2151;50.988;11.068;2023-03-18T11:42:47;112.67;;;5.27;;
4274;SDS011;2151;50.988;11.068;2023-03-18T11:48:00;114.03;;;5.40;;
4274;SDS011;2151;50.988;11.068;2023-03-18T11:53:37;113.70;;;5.30;;
4274;SDS011;2151;50.988;11.068;2023-03-18T12:04:54;115.60;;;5.43;;
4274;SDS011;2151;50.988;11.068;2023-03-18T12:10:15;113.57;;;5.37;;
4274;SDS011;2151;50.988;11.068;2023-03-18T12:18:12;113.53;;;4.90;;
4274;SDS011;2151;50.988;11.068;2023-03-18T12:20:49;114.67;;;5.17;;
4274;SDS011;2151;50.988;11.068;2023-03-18T12:29:02;116.40;;;5.87;;
4274;SDS011;2151;50.988;11.068;2023-03-18T12:45:42;114.70;;;5.43;;
4274;SDS011;2151;50.988;11.068;2023-03-18T12:48:12;113.93;;;5.20;;
4274;SDS011;2151;50.988;11.068;2023-03-18T12:50:43;115.20;;;5.47;;
4274;SDS011;2151;50.988;11.068;2023-03-18T12:53:18;112.30;;;5.40;;
4274;SDS011;2151;50.988;11.068;2023-03-18T12:58:47;112.60;;;5.03;;
4274;SDS011;2151;50.988;11.068;2023-03-18T13:01:33;111.60;;;5.00;;
4274;SDS011;2151;50.988;11.068;2023-03-18T13:04:06;113.63;;;4.87;;
4274;SDS011;2151;50.988;11.068;2023-03-18T13:06:44;113.17;;;4.93;;
4274;SDS011;2151;50.988;11.068;2023-03-18T13:17:17;112.27;;;4.90;;
4274;SDS011;2151;50.988;11.068;2023-03-18T13:19:48;119.13;;;5.63;;
4274;SDS011;2151;50.988;11.068;2023-03-18T13:22:23;114.37;;;5.23;;
4274;SDS011;2151;50.988;11.068;2023-03-18T13:42:09;115.30;;;6.00;;
4274;SDS011;2151;50.988;11.068;2023-03-18T13:44:32;115.03;;;6.00;;
4274;SDS011;2151;50.988;11.068;2023-03-18T13:47:01;117.17;;;6.07;;
4274;SDS011;2151;50.988;11.068;2023-03-18T13:49:30;116.17;;;5.70;;
4274;SDS011;2151;50.988;11.068;2023-03-18T13:52:01;115.83;;;5.67;;
4274;SDS011;2151;50.988;11.068;2023-03-18T13:54:33;116.37;;;5.80;;
4274;SDS011;2151;50.988;11.068;2023-03-18T13:57:15;114.50;;;5.80;;
4274;SDS011;2151;50.988;11.068;2023-03-18T13:59:43;114.40;;;5.27;;
4274;SDS011;2151;50.988;11.068;2023-03-18T14:04:56;115.10;;;5.80;;
4274;SDS011;2151;50.988;11.068;2023-03-18T14:07:25;127.43;;;6.07;;
4274;SDS011;2151;50.988;11.068;2023-03-18T14:12:43;114.47;;;5.50;;
4274;SDS011;2151;50.988;11.068;2023-03-18T14:18:16;114.70;;;5.60;;
4274;SDS011;2151;50.988;11.068;2023-03-18T14:20:53;116.77;;;5.60;;
4274;SDS011;2151;50.988;11.068;2023-03-18T14:31:35;115.17;;;5.50;;
4274;SDS011;2151;50.988;11.068;2023-03-18T14:41:51;113.67;;;5.30;;
4274;SDS011;2151;50.988;11.068;2023-03-18T14:46:48;118.47;;;6.20;;
4274;SDS011;2151;50.988;11.068;2023-03-18T14:52:02;116.53;;;6.50;;
4274;SDS011;2151;50.988;11.068;2023-03-18T14:54:34;117.30;;;6.50;;
4274;SDS011;2151;50.988;11.068;2023-03-18T14:57:07;114.80;;;5.70;;
4274;SDS011;2151;50.988;11.068;2023-03-18T14:59:34;114.60;;;5.40;;
4274;SDS011;2151;50.988;11.068;2023-03-18T15:02:01;114.27;;;5.33;;
4274;SDS011;2151;50.988;11.068;2023-03-18T15:04:28;115.30;;;5.23;;
4274;SDS011;2151;50.988;11.068;2023-03-18T15:06:58;114.47;;;5.40;;
4274;SDS011;2151;50.988;11.068;2023-03-18T15:09:29;117.83;;;5.33;;
4274;SDS011;2151;50.988;11.068;2023-03-18T15:11:57;114.30;;;5.60;;
4274;SDS011;2151;50.988;11.068;2023-03-18T15:14:28;114.90;;;5.13;;
4274;SDS011;2151;50.988;11.068;2023-03-18T15:16:59;114.27;;;5.43;;
4274;SDS011;2151;50.988;11.068;2023-03-18T15:19:28;113.53;;;4.90;;
4274;SDS011;2151;50.988;11.068;2023-03-18T15:21:56;114.20;;;5.57;;
4274;SDS011;2151;50.988;11.068;2023-03-18T15:24:25;116.70;;;5.17;;
4274;SDS011;2151;50.988;11.068;2023-03-18T15:26:56;116.20;;;5.20;;
4274;SDS011;2151;50.988;11.068;2023-03-18T15:29:26;119.70;;;6.07;;
4274;SDS011;2151;50.988;11.068;2023-03-18T15:32:11;120.80;;;5.80;;
4274;SDS011;2151;50.988;11.068;2023-03-18T15:34:43;115.50;;;5.67;;
4274;SDS011;2151;50.988;11.068;2023-03-18T15:37:46;120.13;;;6.50;;
4274;SDS011;2151;50.988;11.068;2023-03-18T15:45:58;118.27;;;5.53;;
4274;SDS011;2151;50.988;11.068;2023-03-18T15:48:27;118.37;;;6.50;;
4274;SDS011;2151;50.988;11.068;2023-03-18T15:51:06;116.33;;;5.40;;
4274;SDS011;2151;50.988;11.068;2023-03-18T15:53:40;117.90;;;6.67;;
4274;SDS011;2151;50.988;11.068;2023-03-18T15:56:13;118.40;;;6.53;;
4274;SDS011;2151;50.988;11.068;2023-03-18T15:58:42;119.70;;;6.00;;
4274;SDS011;2151;50.988;11.068;2023-03-18T16:01:13;120.20;;;6.37;;
4274;SDS011;2151;50.988;11.068;2023-03-18T16:03:42;120.40;;;6.50;;
4274;SDS011;2151;50.988;11.068;2023-03-18T16:06:09;122.40;;;7.87;;
4274;SDS011;2151;50.988;11.068;2023-03-18T16:08:36;125.27;;;7.20;;
4274;SDS011;2151;50.988;11.068;2023-03-18T16:11:02;123.87;;;7.63;;
4274;SDS011;2151;50.988;11.068;2023-03-18T16:13:31;118.77;;;6.40;;
4274;SDS011;2151;50.988;11.068;2023-03-18T16:15:58;119.57;;;6.80;;
4274;SDS011;2151;50.988;11.068;2023-03-18T16:18:25;120.17;;;7.00;;
4274;SDS011;2151;50.988;11.068;2023-03-18T16:20:52;120.00;;;7.40;;
4274;SDS011;2151;50.988;11.068;2023-03-18T16:23:19;119.10;;;7.10;;
4274;SDS011;2151;50.988;11.068;2023-03-18T16:25:47;123.07;;;7.00;;
4274;SDS011;2151;50.988;11.068;2023-03-18T16:28:17;121.50;;;6.73;;
4274;SDS011;2151;50.988;11.068;2023-03-18T16:30:47;122.83;;;8.30;;
4274;SDS011;2151;50.988;11.068;2023-03-18T16:33:15;120.80;;;7.90;;
4274;SDS011;2151;50.988;11.068;2023-03-18T16:35:43;123.23;;;7.93;;
4274;SDS011;2151;50.988;11.068;2023-03-18T16:38:15;119.67;;;6.87;;
4274;SDS011;2151;50.988;11.068;2023-03-18T16:40:43;121.17;;;7.17;;
4274;SDS011;2151;50.988;11.068;2023-03-18T16:43:17;122.20;;;6.57;;
4274;SDS011;2151;50.988;11.068;2023-03-18T16:45:45;119.53;;;6.80;;
4274;SDS011;2151;50.988;11.068;2023-03-18T16:48:13;125.67;;;7.97;;
4274;SDS011;2151;50.988;11.068;2023-03-18T16:50:43;124.67;;;8.37;;
4274;SDS011;2151;50.988;11.068;2023-03-18T16:53:13;121.57;;;7.93;;
4274;SDS011;2151;50.988;11.068;2023-03-18T16:55:48;122.47;;;8.27;;
4274;SDS011;2151;50.988;11.068;2023-03-18T16:58:24;121.67;;;7.87;;
4274;SDS011;2151;50.988;11.068;2023-03-18T17:00:52;123.67;;;7.93;;
4274;SDS011;2151;50.988;11.068;2023-03-18T17:03:19;131.00;;;7.93;;
4274;SDS011;2151;50.988;11.068;2023-03-18T17:05:47;128.63;;;8.83;;
4274;SDS011;2151;50.988;11.068;2023-03-18T17:08:16;125.27;;;8.67;;